Terminal Aerodrome Forecast
Issued by NWS

Home | Current Version | Previous Version | Text Only | Print | Product List | Glossary On
Versions: 1 2 3 4 5 6 7 8 9 10 11 12 13 14 15 16 17 18
999
FTUS43 KIND 271419 AAA
TAFBMG
TAF AMD
KBMG 271419Z 2714/2812 VRB06KT P6SM VCTS SCT030CB BKN100
     FM280100 17004KT P6SM BKN100
     FM280700 14003KT 3SM BR SCT010 BKN100=

USA.gov is the U.S. government's official web portal to all federal, state and local government web resources and services.